sensor_id;sensor_type;location;lat;lon;timestamp;pressure;altitude;pressure_sealevel;temperature;humidity
76794;BME280;65745;50.278;18.192;2023-04-01T00:01:25;97987.02;;;7.15;76.65
76794;BME280;65745;50.278;18.192;2023-04-01T00:03:57;97987.52;;;7.13;76.31
76794;BME280;65745;50.278;18.192;2023-04-01T00:06:32;97989.89;;;7.04;76.40
76794;BME280;65745;50.278;18.192;2023-04-01T00:09:04;97989.00;;;6.96;76.81
76794;BME280;65745;50.278;18.192;2023-04-01T00:11:36;97984.87;;;6.88;76.71
76794;BME280;65745;50.278;18.192;2023-04-01T00:14:09;97983.66;;;6.83;76.83
76794;BME280;65745;50.278;18.192;2023-04-01T00:16:41;97979.53;;;6.81;77.01
76794;BME280;65745;50.278;18.192;2023-04-01T00:19:14;97979.00;;;6.74;77.18
76794;BME280;65745;50.278;18.192;2023-04-01T00:21:46;97981.36;;;6.66;77.43
76794;BME280;65745;50.278;18.192;2023-04-01T00:24:18;97986.11;;;6.59;77.75
76794;BME280;65745;50.278;18.192;2023-04-01T00:26:51;97983.69;;;6.52;77.36
76794;BME280;65745;50.278;18.192;2023-04-01T00:29:23;97981.11;;;6.50;77.31
76794;BME280;65745;50.278;18.192;2023-04-01T00:31:59;97981.98;;;6.51;77.48
76794;BME280;65745;50.278;18.192;2023-04-01T00:34:32;97978.22;;;6.53;77.42
76794;BME280;65745;50.278;18.192;2023-04-01T00:37:04;97977.55;;;6.56;77.16
76794;BME280;65745;50.278;18.192;2023-04-01T00:39:36;97977.26;;;6.67;77.22
76794;BME280;65745;50.278;18.192;2023-04-01T00:42:10;97977.60;;;6.67;77.45
76794;BME280;65745;50.278;18.192;2023-04-01T00:44:47;97970.06;;;6.63;77.43
76794;BME280;65745;50.278;18.192;2023-04-01T00:47:21;97969.04;;;6.63;77.25
76794;BME280;65745;50.278;18.192;2023-04-01T00:49:55;97968.52;;;6.63;77.20
76794;BME280;65745;50.278;18.192;2023-04-01T00:52:27;97969.39;;;6.66;76.63
76794;BME280;65745;50.278;18.192;2023-04-01T00:55:01;97971.28;;;6.69;76.86
76794;BME280;65745;50.278;18.192;2023-04-01T00:57:36;97975.90;;;6.68;77.00
76794;BME280;65745;50.278;18.192;2023-04-01T01:00:12;97973.48;;;6.65;77.32
76794;BME280;65745;50.278;18.192;2023-04-01T01:02:46;97973.33;;;6.67;76.94
76794;BME280;65745;50.278;18.192;2023-04-01T01:05:26;97970.90;;;6.59;78.10
76794;BME280;65745;50.278;18.192;2023-04-01T01:08:16;97968.52;;;6.61;77.93
76794;BME280;65745;50.278;18.192;2023-04-01T01:10:51;97963.56;;;6.65;78.06
76794;BME280;65745;50.278;18.192;2023-04-01T01:13:27;97962.89;;;6.67;77.42
76794;BME280;65745;50.278;18.192;2023-04-01T01:16:06;97966.31;;;6.69;77.14
76794;BME280;65745;50.278;18.192;2023-04-01T01:18:46;97958.47;;;6.73;76.84
76794;BME280;65745;50.278;18.192;2023-04-01T01:21:33;97962.21;;;6.70;76.81
76794;BME280;65745;50.278;18.192;2023-04-01T01:24:38;97967.36;;;6.71;76.55
76794;BME280;65745;50.278;18.192;2023-04-01T01:27:17;97965.98;;;6.72;77.17
76794;BME280;65745;50.278;18.192;2023-04-01T01:30:13;97967.71;;;6.74;77.42
76794;BME280;65745;50.278;18.192;2023-04-01T01:33:20;97955.59;;;6.84;77.33
76794;BME280;65745;50.278;18.192;2023-04-01T01:35:57;97951.34;;;6.92;77.40
76794;BME280;65745;50.278;18.192;2023-04-01T01:38:33;97951.70;;;6.98;76.95
76794;BME280;65745;50.278;18.192;2023-04-01T01:41:08;97949.80;;;6.93;77.48
76794;BME280;65745;50.278;18.192;2023-04-01T01:43:44;97952.03;;;6.93;76.94
76794;BME280;65745;50.278;18.192;2023-04-01T01:46:22;97956.98;;;6.92;76.98
76794;BME280;65745;50.278;18.192;2023-04-01T01:48:57;97951.84;;;6.88;76.54
76794;BME280;65745;50.278;18.192;2023-04-01T01:51:31;97949.60;;;6.85;77.06
76794;BME280;65745;50.278;18.192;2023-04-01T01:54:05;97956.29;;;6.87;77.03
76794;BME280;65745;50.278;18.192;2023-04-01T01:56:37;97957.33;;;6.90;77.43
76794;BME280;65745;50.278;18.192;2023-04-01T01:59:12;97959.56;;;6.95;77.59
76794;BME280;65745;50.278;18.192;2023-04-01T02:01:48;97964.54;;;7.00;77.97
76794;BME280;65745;50.278;18.192;2023-04-01T02:04:22;97963.34;;;7.00;78.54
76794;BME280;65745;50.278;18.192;2023-04-01T02:06:59;97965.05;;;7.01;77.83
76794;BME280;65745;50.278;18.192;2023-04-01T02:09:34;97966.94;;;6.98;78.08
76794;BME280;65745;50.278;18.192;2023-04-01T02:12:08;97967.61;;;7.00;77.99
76794;BME280;65745;50.278;18.192;2023-04-01T02:14:43;97966.23;;;6.96;79.00
76794;BME280;65745;50.278;18.192;2023-04-01T02:17:18;97961.27;;;6.95;78.61
76794;BME280;65745;50.278;18.192;2023-04-01T02:19:52;97962.48;;;6.97;78.14
76794;BME280;65745;50.278;18.192;2023-04-01T02:22:29;97958.39;;;7.01;77.85
76794;BME280;65745;50.278;18.192;2023-04-01T02:25:07;97962.85;;;7.09;78.16
76794;BME280;65745;50.278;18.192;2023-04-01T02:27:40;97956.52;;;7.12;78.23
76794;BME280;65745;50.278;18.192;2023-04-01T02:30:16;97959.28;;;7.17;77.65
76794;BME280;65745;50.278;18.192;2023-04-01T02:32:50;97955.52;;;7.24;77.44
76794;BME280;65745;50.278;18.192;2023-04-01T02:35:23;97959.63;;;7.26;77.16
76794;BME280;65745;50.278;18.192;2023-04-01T02:37:57;97962.19;;;7.24;77.08
76794;BME280;65745;50.278;18.192;2023-04-01T02:40:29;97963.89;;;7.19;77.33
76794;BME280;65745;50.278;18.192;2023-04-01T02:43:12;97965.77;;;7.12;77.19
76794;BME280;65745;50.278;18.192;2023-04-01T02:45:44;97971.59;;;7.11;77.26
76794;BME280;65745;50.278;18.192;2023-04-01T02:48:16;97969.69;;;7.08;77.69
76794;BME280;65745;50.278;18.192;2023-04-01T02:50:48;97970.71;;;7.06;77.90
76794;BME280;65745;50.278;18.192;2023-04-01T02:53:21;97971.91;;;7.07;78.13
76794;BME280;65745;50.278;18.192;2023-04-01T02:55:53;97981.16;;;7.09;77.84
76794;BME280;65745;50.278;18.192;2023-04-01T02:58:26;97980.98;;;7.05;77.89
76794;BME280;65745;50.278;18.192;2023-04-01T03:00:58;97983.39;;;7.09;77.57
76794;BME280;65745;50.278;18.192;2023-04-01T03:03:30;97980.16;;;7.13;77.12
76794;BME280;65745;50.278;18.192;2023-04-01T03:06:08;97978.43;;;7.10;77.43
76794;BME280;65745;50.278;18.192;2023-04-01T03:08:40;97981.17;;;7.08;77.75
76794;BME280;65745;50.278;18.192;2023-04-01T03:11:13;97983.90;;;7.10;78.00
76794;BME280;65745;50.278;18.192;2023-04-01T03:13:46;97985.12;;;7.12;78.74
76794;BME280;65745;50.278;18.192;2023-04-01T03:16:18;97986.32;;;7.17;78.36
76794;BME280;65745;50.278;18.192;2023-04-01T03:18:50;97985.66;;;7.19;78.07
76794;BME280;65745;50.278;18.192;2023-04-01T03:21:25;97984.97;;;7.23;77.77
76794;BME280;65745;50.278;18.192;2023-04-01T03:23:57;97988.58;;;7.24;78.02
76794;BME280;65745;50.278;18.192;2023-04-01T03:26:31;97986.86;;;7.24;77.64
76794;BME280;65745;50.278;18.192;2023-04-01T03:29:04;97983.09;;;7.23;77.84
76794;BME280;65745;50.278;18.192;2023-04-01T03:31:36;97984.63;;;7.23;78.04
76794;BME280;65745;50.278;18.192;2023-04-01T03:34:08;97986.52;;;7.25;77.97
76794;BME280;65745;50.278;18.192;2023-04-01T03:36:40;97983.42;;;7.26;78.13
76794;BME280;65745;50.278;18.192;2023-04-01T03:39:12;97985.49;;;7.30;78.70
76794;BME280;65745;50.278;18.192;2023-04-01T03:41:45;97985.66;;;7.32;79.16
76794;BME280;65745;50.278;18.192;2023-04-01T03:44:17;97983.29;;;7.41;78.74
76794;BME280;65745;50.278;18.192;2023-04-01T03:46:50;97980.55;;;7.43;78.82
76794;BME280;65745;50.278;18.192;2023-04-01T03:49:22;97982.10;;;7.54;78.07
76794;BME280;65745;50.278;18.192;2023-04-01T03:51:55;97982.45;;;7.61;77.84
76794;BME280;65745;50.278;18.192;2023-04-01T03:54:27;97982.61;;;7.69;78.06
76794;BME280;65745;50.278;18.192;2023-04-01T03:56:59;97987.26;;;7.75;77.33
76794;BME280;65745;50.278;18.192;2023-04-01T03:59:31;97984.17;;;7.80;77.59
76794;BME280;65745;50.278;18.192;2023-04-01T04:02:04;97987.43;;;7.81;77.81
76794;BME280;65745;50.278;18.192;2023-04-01T04:04:36;97990.17;;;7.78;77.58
76794;BME280;65745;50.278;18.192;2023-04-01T04:07:08;97986.56;;;7.71;78.08
76794;BME280;65745;50.278;18.192;2023-04-01T04:10:08;97986.75;;;7.66;78.28
76794;BME280;65745;50.278;18.192;2023-04-01T04:12:41;97988.27;;;7.68;78.15
76794;BME280;65745;50.278;18.192;2023-04-01T04:15:13;97985.52;;;7.67;78.60
76794;BME280;65745;50.278;18.192;2023-04-01T04:17:46;97988.62;;;7.59;79.03
76794;BME280;65745;50.278;18.192;2023-04-01T04:20:19;97986.55;;;7.58;78.97
76794;BME280;65745;50.278;18.192;2023-04-01T04:22:51;97988.27;;;7.66;78.88
76794;BME280;65745;50.278;18.192;2023-04-01T04:25:23;97985.36;;;7.68;79.01
76794;BME280;65745;50.278;18.192;2023-04-01T04:27:56;97985.37;;;7.71;78.76
76794;BME280;65745;50.278;18.192;2023-04-01T04:30:28;97986.24;;;7.77;78.42
76794;BME280;65745;50.278;18.192;2023-04-01T04:33:00;97985.70;;;7.82;78.13
76794;BME280;65745;50.278;18.192;2023-04-01T04:35:32;97986.23;;;7.77;78.21
76794;BME280;65745;50.278;18.192;2023-04-01T04:38:05;97981.94;;;7.70;78.34
76794;BME280;65745;50.278;18.192;2023-04-01T04:40:38;97981.09;;;7.64;78.61
76794;BME280;65745;50.278;18.192;2023-04-01T04:43:14;97980.57;;;7.60;78.34
76794;BME280;65745;50.278;18.192;2023-04-01T04:45:46;97978.34;;;7.61;78.65
76794;BME280;65745;50.278;18.192;2023-04-01T04:48:19;97982.29;;;7.66;78.85
76794;BME280;65745;50.278;18.192;2023-04-01T04:50:52;97984.17;;;7.71;79.19
76794;BME280;65745;50.278;18.192;2023-04-01T04:53:26;97981.95;;;7.75;79.25
76794;BME280;65745;50.278;18.192;2023-04-01T04:55:58;97984.02;;;7.78;79.16
76794;BME280;65745;50.278;18.192;2023-04-01T04:58:46;97988.27;;;7.94;78.62
76794;BME280;65745;50.278;18.192;2023-04-01T05:01:21;97987.40;;;8.11;78.23
76794;BME280;65745;50.278;18.192;2023-04-01T05:03:53;97987.91;;;8.21;78.13
76794;BME280;65745;50.278;18.192;2023-04-01T05:06:25;97989.96;;;8.24;78.06
76794;BME280;65745;50.278;18.192;2023-04-01T05:09:00;97991.34;;;8.22;78.06
76794;BME280;65745;50.278;18.192;2023-04-01T05:11:32;97992.71;;;8.22;78.19
76794;BME280;65745;50.278;18.192;2023-04-01T05:14:04;97994.41;;;8.24;78.30
76794;BME280;65745;50.278;18.192;2023-04-01T05:16:36;97994.75;;;8.26;78.02
76794;BME280;65745;50.278;18.192;2023-04-01T05:19:09;97993.39;;;8.27;77.98
76794;BME280;65745;50.278;18.192;2023-04-01T05:21:41;97994.75;;;8.25;77.89
76794;BME280;65745;50.278;18.192;2023-04-01T05:24:14;97992.20;;;8.23;78.05
76794;BME280;65745;50.278;18.192;2023-04-01T05:26:46;97993.73;;;8.27;78.16
76794;BME280;65745;50.278;18.192;2023-04-01T05:29:18;97994.77;;;8.30;78.43
76794;BME280;65745;50.278;18.192;2023-04-01T05:31:53;97997.17;;;8.35;78.60
76794;BME280;65745;50.278;18.192;2023-04-01T05:34:25;97993.56;;;8.39;78.46
76794;BME280;65745;50.278;18.192;2023-04-01T05:36:57;97999.39;;;8.45;78.43
76794;BME280;65745;50.278;18.192;2023-04-01T05:39:29;98000.40;;;8.50;78.64
76794;BME280;65745;50.278;18.192;2023-04-01T05:42:02;98002.29;;;8.53;78.31
76794;BME280;65745;50.278;18.192;2023-04-01T05:44:35;98001.08;;;8.56;78.27
76794;BME280;65745;50.278;18.192;2023-04-01T05:47:10;98001.41;;;8.57;78.17
76794;BME280;65745;50.278;18.192;2023-04-01T05:49:42;98002.60;;;8.60;77.87
76794;BME280;65745;50.278;18.192;2023-04-01T05:52:14;98000.88;;;8.62;78.09
76794;BME280;65745;50.278;18.192;2023-04-01T05:54:46;98000.86;;;8.68;78.15
76794;BME280;65745;50.278;18.192;2023-04-01T05:57:18;98002.73;;;8.73;78.16
76794;BME280;65745;50.278;18.192;2023-04-01T05:59:51;98005.27;;;8.80;78.15
76794;BME280;65745;50.278;18.192;2023-04-01T06:02:24;98003.36;;;8.88;78.37
76794;BME280;65745;50.278;18.192;2023-04-01T06:05:03;98005.04;;;8.95;78.36
76794;BME280;65745;50.278;18.192;2023-04-01T06:07:43;98009.30;;;9.02;78.08
76794;BME280;65745;50.278;18.192;2023-04-01T06:10:16;98014.10;;;9.07;77.77
76794;BME280;65745;50.278;18.192;2023-04-01T06:12:58;98010.14;;;9.09;77.53
76794;BME280;65745;50.278;18.192;2023-04-01T06:15:43;98012.19;;;9.13;77.71
76794;BME280;65745;50.278;18.192;2023-04-01T06:21:42;98015.56;;;9.23;77.66
76794;BME280;65745;50.278;18.192;2023-04-01T06:24:37;98015.17;;;9.33;77.76
76794;BME280;65745;50.278;18.192;2023-04-01T06:27:20;98019.77;;;9.41;77.76
76794;BME280;65745;50.278;18.192;2023-04-01T06:30:19;98022.11;;;9.50;77.47
76794;BME280;65745;50.278;18.192;2023-04-01T06:33:16;98020.30;;;9.62;77.01
76794;BME280;65745;50.278;18.192;2023-04-01T06:36:17;98024.85;;;9.76;77.02
76794;BME280;65745;50.278;18.192;2023-04-01T06:39:12;98029.27;;;9.84;77.10
76794;BME280;65745;50.278;18.192;2023-04-01T06:45:20;98033.96;;;10.00;76.73
76794;BME280;65745;50.278;18.192;2023-04-01T06:48:34;98036.80;;;10.09;76.72
76794;BME280;65745;50.278;18.192;2023-04-01T06:51:42;98038.66;;;10.15;76.79
76794;BME280;65745;50.278;18.192;2023-04-01T06:54:40;98039.52;;;10.19;76.91
76794;BME280;65745;50.278;18.192;2023-04-01T06:57:38;98038.73;;;10.27;76.56
76794;BME280;65745;50.278;18.192;2023-04-01T07:00:17;98040.41;;;10.33;76.65
76794;BME280;65745;50.278;18.192;2023-04-01T07:02:56;98039.50;;;10.39;76.29
76794;BME280;65745;50.278;18.192;2023-04-01T07:05:35;98049.75;;;10.47;76.24
76794;BME280;65745;50.278;18.192;2023-04-01T07:08:11;98048.11;;;10.55;76.17
76794;BME280;65745;50.278;18.192;2023-04-01T07:10:50;98051.34;;;10.60;75.61
76794;BME280;65745;50.278;18.192;2023-04-01T07:13:45;98053.35;;;10.66;76.19
76794;BME280;65745;50.278;18.192;2023-04-01T07:16:24;98051.35;;;10.76;75.48
76794;BME280;65745;50.278;18.192;2023-04-01T07:19:03;98052.04;;;10.77;74.86
76794;BME280;65745;50.278;18.192;2023-04-01T07:21:51;98055.97;;;10.79;74.45
76794;BME280;65745;50.278;18.192;2023-04-01T07:24:35;98057.30;;;10.83;74.57
76794;BME280;65745;50.278;18.192;2023-04-01T07:27:13;98057.98;;;10.84;74.63
76794;BME280;65745;50.278;18.192;2023-04-01T07:29:46;98061.61;;;10.83;74.07
76794;BME280;65745;50.278;18.192;2023-04-01T07:32:33;98060.28;;;10.78;74.40
76794;BME280;65745;50.278;18.192;2023-04-01T07:35:19;98062.92;;;10.73;74.13
76794;BME280;65745;50.278;18.192;2023-04-01T07:38:13;98067.10;;;10.69;74.18
76794;BME280;65745;50.278;18.192;2023-04-01T07:40:51;98072.30;;;10.66;74.70
76794;BME280;65745;50.278;18.192;2023-04-01T07:43:48;98069.55;;;10.63;74.97
76794;BME280;65745;50.278;18.192;2023-04-01T07:46:41;98068.73;;;10.61;75.35
76794;BME280;65745;50.278;18.192;2023-04-01T07:49:24;98074.58;;;10.61;75.61
76794;BME280;65745;50.278;18.192;2023-04-01T07:52:04;98075.96;;;10.60;75.58
76794;BME280;65745;50.278;18.192;2023-04-01T07:54:43;98078.03;;;10.59;75.62
76794;BME280;65745;50.278;18.192;2023-04-01T07:57:23;98078.23;;;10.58;75.50
76794;BME280;65745;50.278;18.192;2023-04-01T08:00:02;98080.28;;;10.58;75.38
76794;BME280;65745;50.278;18.192;2023-04-01T08:03:12;98081.34;;;10.56;75.86
76794;BME280;65745;50.278;18.192;2023-04-01T08:05:54;98078.91;;;10.58;76.13
76794;BME280;65745;50.278;18.192;2023-04-01T08:08:37;98079.52;;;10.67;76.45
76794;BME280;65745;50.278;18.192;2023-04-01T08:11:39;98080.28;;;10.77;76.81
76794;BME280;65745;50.278;18.192;2023-04-01T08:14:39;98086.10;;;10.79;76.60
76794;BME280;65745;50.278;18.192;2023-04-01T08:17:27;98094.89;;;10.78;76.53
76794;BME280;65745;50.278;18.192;2023-04-01T08:20:14;98095.12;;;10.73;76.18
76794;BME280;65745;50.278;18.192;2023-04-01T08:22:53;98099.60;;;10.73;76.35
76794;BME280;65745;50.278;18.192;2023-04-01T08:25:35;98098.88;;;10.76;76.33
76794;BME280;65745;50.278;18.192;2023-04-01T08:28:17;98096.26;;;10.81;76.30
76794;BME280;65745;50.278;18.192;2023-04-01T08:30:50;98092.45;;;10.83;76.02
76794;BME280;65745;50.278;18.192;2023-04-01T08:33:26;98089.69;;;10.83;75.64
76794;BME280;65745;50.278;18.192;2023-04-01T08:36:09;98094.08;;;10.91;75.43
76794;BME280;65745;50.278;18.192;2023-04-01T08:38:46;98090.76;;;10.95;75.01
76794;BME280;65745;50.278;18.192;2023-04-01T08:48:25;98088.14;;;11.67;74.38
76794;BME280;65745;50.278;18.192;2023-04-01T08:51:23;98086.29;;;11.78;75.11
76794;BME280;65745;50.278;18.192;2023-04-01T08:54:26;98082.34;;;11.77;73.74
76794;BME280;65745;50.278;18.192;2023-04-01T08:57:10;98087.23;;;11.73;73.94
76794;BME280;65745;50.278;18.192;2023-04-01T09:00:15;98090.55;;;11.68;74.06
76794;BME280;65745;50.278;18.192;2023-04-01T09:03:40;98094.58;;;11.64;74.03
76794;BME280;65745;50.278;18.192;2023-04-01T09:06:33;98092.20;;;11.61;74.64
76794;BME280;65745;50.278;18.192;2023-04-01T09:09:38;98097.86;;;11.63;73.76
76794;BME280;65745;50.278;18.192;2023-04-01T09:12:36;98095.66;;;11.60;73.64
76794;BME280;65745;50.278;18.192;2023-04-01T09:15:40;98097.95;;;11.70;73.89
76794;BME280;65745;50.278;18.192;2023-04-01T09:18:37;98099.75;;;11.79;74.19
76794;BME280;65745;50.278;18.192;2023-04-01T09:21:28;98095.92;;;11.92;73.98
76794;BME280;65745;50.278;18.192;2023-04-01T09:24:32;98093.88;;;12.14;73.95
76794;BME280;65745;50.278;18.192;2023-04-01T09:27:16;98094.59;;;12.34;73.18
76794;BME280;65745;50.278;18.192;2023-04-01T09:30:24;98095.88;;;12.40;72.85
76794;BME280;65745;50.278;18.192;2023-04-01T09:36:17;98096.14;;;12.34;72.32
76794;BME280;65745;50.278;18.192;2023-04-01T09:38:58;98092.98;;;12.38;72.42
76794;BME280;65745;50.278;18.192;2023-04-01T09:41:35;98094.23;;;12.46;72.19
76794;BME280;65745;50.278;18.192;2023-04-01T09:44:20;98095.42;;;12.57;72.08
76794;BME280;65745;50.278;18.192;2023-04-01T09:47:30;98098.05;;;12.64;71.36
76794;BME280;65745;50.278;18.192;2023-04-01T09:50:26;98097.23;;;12.72;71.42
76794;BME280;65745;50.278;18.192;2023-04-01T09:53:14;98099.23;;;12.76;70.64
76794;BME280;65745;50.278;18.192;2023-04-01T10:12:00;98095.71;;;12.69;70.18
76794;BME280;65745;50.278;18.192;2023-04-01T10:15:03;98095.09;;;12.65;69.79
76794;BME280;65745;50.278;18.192;2023-04-01T10:18:00;98096.02;;;12.82;70.46
76794;BME280;65745;50.278;18.192;2023-04-01T10:20:52;98097.20;;;12.92;68.75
76794;BME280;65745;50.278;18.192;2023-04-01T10:23:46;98101.80;;;13.04;68.49
76794;BME280;65745;50.278;18.192;2023-04-01T10:26:51;98102.31;;;13.33;67.63
76794;BME280;65745;50.278;18.192;2023-04-01T10:30:03;98101.15;;;13.49;67.00
76794;BME280;65745;50.278;18.192;2023-04-01T10:33:15;98093.93;;;13.62;67.09
76794;BME280;65745;50.278;18.192;2023-04-01T10:36:15;98097.23;;;13.78;66.52
76794;BME280;65745;50.278;18.192;2023-04-01T10:39:17;98095.70;;;13.92;64.54
76794;BME280;65745;50.278;18.192;2023-04-01T10:42:22;98094.95;;;14.17;64.19
76794;BME280;65745;50.278;18.192;2023-04-01T10:45:39;98097.23;;;14.30;63.33
76794;BME280;65745;50.278;18.192;2023-04-01T10:48:45;98099.30;;;14.23;63.61
76794;BME280;65745;50.278;18.192;2023-04-01T10:51:47;98100.79;;;14.19;63.40
76794;BME280;65745;50.278;18.192;2023-04-01T10:54:47;98101.11;;;13.96;62.94
76794;BME280;65745;50.278;18.192;2023-04-01T10:58:37;98103.35;;;13.90;63.65
76794;BME280;65745;50.278;18.192;2023-04-01T11:05:40;98104.54;;;14.14;63.42
76794;BME280;65745;50.278;18.192;2023-04-01T11:23:54;98094.67;;;14.64;61.99
76794;BME280;65745;50.278;18.192;2023-04-01T11:26:49;98092.39;;;14.85;62.31
76794;BME280;65745;50.278;18.192;2023-04-01T11:30:10;98097.82;;;14.83;62.13
76794;BME280;65745;50.278;18.192;2023-04-01T11:32:54;98099.82;;;14.52;61.14
76794;BME280;65745;50.278;18.192;2023-04-01T11:35:45;98099.90;;;14.42;61.75
76794;BME280;65745;50.278;18.192;2023-04-01T11:38:41;98095.45;;;14.47;61.38
76794;BME280;65745;50.278;18.192;2023-04-01T11:41:48;98091.59;;;14.56;61.50
76794;BME280;65745;50.278;18.192;2023-04-01T11:45:01;98094.30;;;14.78;61.85
76794;BME280;65745;50.278;18.192;2023-04-01T11:48:01;98092.83;;;14.75;61.26
76794;BME280;65745;50.278;18.192;2023-04-01T11:50:52;98096.52;;;14.46;60.43
76794;BME280;65745;50.278;18.192;2023-04-01T11:53:41;98100.10;;;14.26;61.12
76794;BME280;65745;50.278;18.192;2023-04-01T11:56:23;98102.92;;;14.01;61.79
76794;BME280;65745;50.278;18.192;2023-04-01T12:02:14;98102.89;;;13.72;62.24
76794;BME280;65745;50.278;18.192;2023-04-01T12:04:58;98108.23;;;13.56;62.55
76794;BME280;65745;50.278;18.192;2023-04-01T12:07:55;98110.66;;;13.48;63.06
76794;BME280;65745;50.278;18.192;2023-04-01T12:10:37;98112.11;;;13.36;63.12
76794;BME280;65745;50.278;18.192;2023-04-01T12:13:19;98110.34;;;13.29;62.83
76794;BME280;65745;50.278;18.192;2023-04-01T12:16:11;98116.94;;;13.37;63.00
76794;BME280;65745;50.278;18.192;2023-04-01T12:18:50;98116.85;;;13.50;62.72
76794;BME280;65745;50.278;18.192;2023-04-01T12:21:27;98117.40;;;13.80;61.32
76794;BME280;65745;50.278;18.192;2023-04-01T12:24:29;98111.38;;;13.95;61.26
76794;BME280;65745;50.278;18.192;2023-04-01T12:27:16;98116.67;;;13.97;61.01
76794;BME280;65745;50.278;18.192;2023-04-01T12:30:14;98111.74;;;14.09;60.80
76794;BME280;65745;50.278;18.192;2023-04-01T12:32:57;98113.20;;;14.36;60.50
76794;BME280;65745;50.278;18.192;2023-04-01T12:35:39;98113.98;;;14.47;60.00
76794;BME280;65745;50.278;18.192;2023-04-01T12:38:28;98118.12;;;14.40;58.94
76794;BME280;65745;50.278;18.192;2023-04-01T12:41:11;98111.39;;;14.24;58.70
76794;BME280;65745;50.278;18.192;2023-04-01T12:43:59;98117.15;;;14.30;59.46
76794;BME280;65745;50.278;18.192;2023-04-01T12:46:49;98120.02;;;14.41;57.95
76794;BME280;65745;50.278;18.192;2023-04-01T12:49:40;98117.60;;;14.55;58.48
76794;BME280;65745;50.278;18.192;2023-04-01T12:52:21;98117.23;;;14.70;58.49
76794;BME280;65745;50.278;18.192;2023-04-01T12:55:18;98119.90;;;14.60;57.84
76794;BME280;65745;50.278;18.192;2023-04-01T12:58:13;98116.95;;;14.46;58.31
76794;BME280;65745;50.278;18.192;2023-04-01T13:00:59;98121.88;;;14.43;57.82
76794;BME280;65745;50.278;18.192;2023-04-01T13:03:47;98119.86;;;14.41;57.73
76794;BME280;65745;50.278;18.192;2023-04-01T13:06:33;98120.92;;;14.32;57.47
76794;BME280;65745;50.278;18.192;2023-04-01T13:09:22;98119.40;;;14.22;57.58
76794;BME280;65745;50.278;18.192;2023-04-01T13:12:17;98119.19;;;14.17;58.67
76794;BME280;65745;50.278;18.192;2023-04-01T13:15:07;98119.98;;;14.12;59.17
76794;BME280;65745;50.278;18.192;2023-04-01T13:17:49;98123.87;;;14.09;58.73
76794;BME280;65745;50.278;18.192;2023-04-01T13:20:33;98130.90;;;14.04;58.43
76794;BME280;65745;50.278;18.192;2023-04-01T13:23:19;98132.70;;;13.93;58.91
76794;BME280;65745;50.278;18.192;2023-04-01T13:26:02;98138.87;;;13.96;60.50
76794;BME280;65745;50.278;18.192;2023-04-01T13:28:50;98138.64;;;14.21;61.63
76794;BME280;65745;50.278;18.192;2023-04-01T13:31:36;98134.73;;;15.15;59.86
76794;BME280;65745;50.278;18.192;2023-04-01T13:34:20;98136.71;;;17.02;55.94
76794;BME280;65745;50.278;18.192;2023-04-01T13:37:04;98134.70;;;16.95;56.24
76794;BME280;65745;50.278;18.192;2023-04-01T13:39:53;98137.27;;;16.65;56.21
76794;BME280;65745;50.278;18.192;2023-04-01T13:42:31;98138.35;;;16.47;56.68
76794;BME280;65745;50.278;18.192;2023-04-01T13:45:14;98141.46;;;16.48;56.72
76794;BME280;65745;50.278;18.192;2023-04-01T13:51:11;98143.63;;;16.78;56.30
76794;BME280;65745;50.278;18.192;2023-04-01T13:54:02;98143.35;;;16.37;56.03
76794;BME280;65745;50.278;18.192;2023-04-01T13:56:47;98151.30;;;16.05;57.13
76794;BME280;65745;50.278;18.192;2023-04-01T13:59:42;98149.96;;;15.75;56.96
76794;BME280;65745;50.278;18.192;2023-04-01T14:02:44;98153.31;;;15.48;58.42
76794;BME280;65745;50.278;18.192;2023-04-01T14:11:27;98153.42;;;17.26;56.28
76794;BME280;65745;50.278;18.192;2023-04-01T14:14:17;98147.06;;;18.59;53.30
76794;BME280;65745;50.278;18.192;2023-04-01T14:17:20;98149.16;;;19.09;52.78
76794;BME280;65745;50.278;18.192;2023-04-01T14:20:20;98147.58;;;19.34;48.74
76794;BME280;65745;50.278;18.192;2023-04-01T14:23:12;98145.33;;;19.25;49.93
76794;BME280;65745;50.278;18.192;2023-04-01T14:26:11;98142.83;;;20.12;47.69
76794;BME280;65745;50.278;18.192;2023-04-01T14:28:51;98149.36;;;20.94;47.17
76794;BME280;65745;50.278;18.192;2023-04-01T14:31:34;98148.08;;;20.74;47.23
76794;BME280;65745;50.278;18.192;2023-04-01T14:34:23;98147.08;;;20.73;46.26
76794;BME280;65745;50.278;18.192;2023-04-01T14:37:19;98152.86;;;19.79;46.85
76794;BME280;65745;50.278;18.192;2023-04-01T14:40:28;98156.81;;;18.72;48.13
76794;BME280;65745;50.278;18.192;2023-04-01T14:43:52;98164.52;;;18.05;49.54
76794;BME280;65745;50.278;18.192;2023-04-01T14:46:50;98175.76;;;17.35;50.87
76794;BME280;65745;50.278;18.192;2023-04-01T14:49:32;98175.67;;;16.65;52.20
76794;BME280;65745;50.278;18.192;2023-04-01T14:52:11;98179.21;;;16.18;53.25
76794;BME280;65745;50.278;18.192;2023-04-01T14:54:48;98180.34;;;15.87;53.89
76794;BME280;65745;50.278;18.192;2023-04-01T14:57:23;98177.82;;;15.59;54.36
76794;BME280;65745;50.278;18.192;2023-04-01T15:00:12;98182.30;;;15.28;54.02
76794;BME280;65745;50.278;18.192;2023-04-01T15:02:54;98184.31;;;14.97;54.64
76794;BME280;65745;50.278;18.192;2023-04-01T15:05:36;98189.65;;;14.71;56.25
76794;BME280;65745;50.278;18.192;2023-04-01T15:08:19;98191.79;;;14.54;57.91
76794;BME280;65745;50.278;18.192;2023-04-01T15:10:59;98195.79;;;14.38;58.22
76794;BME280;65745;50.278;18.192;2023-04-01T15:17:02;98203.11;;;14.19;59.98
76794;BME280;65745;50.278;18.192;2023-04-01T15:19:53;98203.29;;;14.19;59.84
76794;BME280;65745;50.278;18.192;2023-04-01T15:22:45;98204.61;;;14.14;60.77
76794;BME280;65745;50.278;18.192;2023-04-01T15:25:41;98195.79;;;14.22;60.27
76794;BME280;65745;50.278;18.192;2023-04-01T15:28:25;98196.27;;;14.23;61.09